Time;durP1;ratioP1;P1;durP2;ratioP2;P2;SDS_P1;SDS_P2;PMS_P1;PMS_P2;Temp;Humidity;BMP_temperature;BMP_pressure;BME280_temperature;BME280_humidity;BME280_pressure;Samples;Min_cycle;Max_cycle;Signal;HPM_P1;HPM_P2
2021/01/12 00:01:15;;;;;;;0.80;0.37;;;5.50;82.40;;;;;;6168869;23;20011;-87
2021/01/12 00:03:42;;;;;;;0.93;0.20;;;5.50;82.40;;;;;;6220707;23;20003;-88
2021/01/12 00:06:08;;;;;;;1.03;0.63;;;5.50;82.50;;;;;;6193228;23;20272;-90
2021/01/12 00:08:34;;;;;;;1.17;0.50;;;5.40;82.40;;;;;;6245591;23;20287;-90
2021/01/12 00:11:01;;;;;;;0.87;0.63;;;5.50;82.50;;;;;;6219988;23;20091;-90
2021/01/12 00:13:27;;;;;;;2.23;0.73;;;5.50;82.50;;;;;;6194503;23;19997;-88
2021/01/12 00:15:54;;;;;;;2.30;0.73;;;5.50;82.50;;;;;;6220051;23;20420;-89
2021/01/12 00:18:20;;;;;;;0.80;0.40;;;5.50;82.60;;;;;;6194276;23;20506;-89
2021/01/12 00:20:46;;;;;;;2.57;0.83;;;5.50;82.60;;;;;;6194506;23;20007;-90
2021/01/12 00:23:12;;;;;;;1.03;0.57;;;5.50;82.60;;;;;;6194448;23;20269;-90
2021/01/12 00:25:39;;;;;;;0.50;0.30;;;5.50;82.60;;;;;;6170470;23;20000;-87
2021/01/12 00:28:05;;;;;;;3.90;0.40;;;5.50;82.60;;;;;;6170174;23;20394;-89
2021/01/12 00:30:32;;;;;;;1.33;0.43;;;5.50;82.50;;;;;;6168636;23;20276;-87
2021/01/12 00:32:58;;;;;;;1.90;0.50;;;5.60;82.70;;;;;;6195274;23;20368;-88
2021/01/12 00:35:24;;;;;;;0.40;0.33;;;5.60;82.60;;;;;;6195266;23;20379;-88
2021/01/12 00:37:51;;;;;;;0.67;0.30;;;5.60;82.60;;;;;;6194931;23;20000;-88
2021/01/12 00:40:17;;;;;;;1.10;0.70;;;5.60;82.60;;;;;;6193611;23;19999;-89
2021/01/12 00:42:43;;;;;;;4.67;0.73;;;5.60;82.60;;;;;;6168748;23;19997;-89
2021/01/12 00:45:10;;;;;;;1.27;0.20;;;5.60;82.60;;;;;;6168053;23;20004;-88
2021/01/12 00:47:37;;;;;;;1.90;0.30;;;5.60;82.60;;;;;;6193656;23;20012;-88
2021/01/12 00:50:04;;;;;;;9.10;1.30;;;5.60;82.60;;;;;;6220298;23;20000;-89
2021/01/12 00:52:30;;;;;;;1.13;0.30;;;5.60;82.60;;;;;;6192639;23;20019;-90
2021/01/12 00:54:57;;;;;;;1.30;0.60;;;5.60;82.60;;;;;;6218919;23;20000;-91
2021/01/12 00:57:23;;;;;;;1.13;0.60;;;5.60;82.60;;;;;;6194255;23;20004;-90
2021/01/12 00:59:49;;;;;;;2.00;0.40;;;5.60;82.60;;;;;;6171411;23;20259;-89
2021/01/12 01:02:16;;;;;;;0.20;0.03;;;5.70;82.70;;;;;;6163673;23;20009;-87
2021/01/12 01:04:42;;;;;;;1.17;0.47;;;5.70;82.70;;;;;;6163669;23;20241;-91
2021/01/12 01:07:09;;;;;;;0.30;0.27;;;5.70;82.70;;;;;;6218021;23;19997;-93
2021/01/12 01:09:35;;;;;;;0.73;0.53;;;5.70;82.70;;;;;;6190314;23;20000;-88
2021/01/12 01:12:01;;;;;;;0.30;0.20;;;5.70;82.70;;;;;;6140143;23;20005;-90
2021/01/12 01:14:28;;;;;;;1.70;0.37;;;5.70;82.70;;;;;;6190516;23;20009;-87
2021/01/12 01:16:54;;;;;;;0.53;0.30;;;5.70;82.70;;;;;;6166641;23;20013;-89
2021/01/12 01:19:21;;;;;;;0.23;0.20;;;5.70;82.70;;;;;;6167215;23;20251;-88
2021/01/12 01:21:48;;;;;;;3.03;0.90;;;5.70;82.70;;;;;;6215716;23;19997;-88
2021/01/12 01:24:14;;;;;;;1.87;0.50;;;5.70;82.70;;;;;;6140341;23;20005;-88
2021/01/12 01:26:41;;;;;;;1.37;0.53;;;5.70;82.70;;;;;;6139966;23;20005;-89
2021/01/12 01:29:07;;;;;;;1.03;0.73;;;5.80;82.80;;;;;;6164605;23;20012;-88
2021/01/12 01:31:35;;;;;;;0.40;0.30;;;5.70;82.70;;;;;;6140313;23;20028;-88
2021/01/12 01:34:01;;;;;;;0.90;0.43;;;5.80;82.80;;;;;;6165132;23;20008;-88
2021/01/12 01:36:28;;;;;;;3.60;0.20;;;5.80;82.80;;;;;;6165603;23;20000;-90
2021/01/12 01:38:54;;;;;;;0.87;0.67;;;5.80;82.70;;;;;;6165473;23;20001;-89
2021/01/12 01:41:20;;;;;;;0.80;0.10;;;5.80;82.70;;;;;;6188836;23;19996;-88
2021/01/12 01:43:47;;;;;;;3.20;0.67;;;5.80;82.70;;;;;;6190364;23;19993;-88
2021/01/12 01:46:13;;;;;;;0.83;0.20;;;5.90;82.80;;;;;;6167274;23;20388;-89
2021/01/12 01:48:39;;;;;;;0.20;0.00;;;5.90;82.80;;;;;;6167700;23;20004;-88
2021/01/12 01:51:06;;;;;;;0.93;0.67;;;5.90;82.80;;;;;;6165804;23;20001;-90
2021/01/12 01:53:36;;;;;;;1.00;0.40;;;5.90;82.80;;;;;;6217479;23;19996;-90
2021/01/12 01:56:04;;;;;;;1.90;0.33;;;5.90;82.80;;;;;;6189709;23;20000;-89
2021/01/12 01:58:31;;;;;;;1.97;0.80;;;5.90;82.80;;;;;;6221434;23;20016;-89
2021/01/12 02:00:57;;;;;;;0.03;0.03;;;5.90;82.80;;;;;;6197345;23;20015;-89
2021/01/12 02:03:30;;;;;;;0.73;0.63;;;5.90;82.80;;;;;;6222364;23;20007;-90
2021/01/12 02:06:00;;;;;;;1.73;0.33;;;5.90;82.80;;;;;;6196493;23;20380;-89
2021/01/12 02:08:50;;;;;;;0.63;0.33;;;5.90;82.80;;;;;;6196684;23;20011;-89
2021/01/12 02:11:16;;;;;;;1.10;0.27;;;5.90;82.80;;;;;;6211206;23;20004;-91
2021/01/12 02:13:43;;;;;;;0.37;0.20;;;5.90;82.80;;;;;;6170042;23;20000;-91
2021/01/12 02:16:09;;;;;;;0.00;0.00;;;6.00;82.90;;;;;;6195370;23;20019;-88
2021/01/12 02:18:36;;;;;;;2.77;0.47;;;6.00;82.90;;;;;;6218186;23;20007;-89
2021/01/12 02:21:03;;;;;;;0.23;0.10;;;6.00;82.90;;;;;;6247563;23;20003;-88
2021/01/12 02:23:34;;;;;;;0.40;0.27;;;6.00;82.90;;;;;;6194610;23;20004;-88
2021/01/12 02:26:00;;;;;;;0.70;0.17;;;6.00;82.90;;;;;;6220706;23;20004;-89
2021/01/12 02:28:27;;;;;;;0.40;0.40;;;6.00;82.90;;;;;;6197257;23;19996;-87
2021/01/12 02:30:53;;;;;;;0.37;0.10;;;6.00;82.90;;;;;;6194552;23;20011;-88
2021/01/12 02:33:19;;;;;;;1.63;0.90;;;6.00;82.80;;;;;;6221324;23;20006;-89
2021/01/12 02:35:47;;;;;;;0.57;0.20;;;6.10;83.60;;;;;;6195617;23;20000;-89
2021/01/12 02:38:14;;;;;;;0.60;0.30;;;6.10;82.90;;;;;;6194316;23;20000;-89
2021/01/12 02:40:40;;;;;;;1.03;0.33;;;6.10;82.80;;;;;;6218722;23;20000;-88
2021/01/12 02:43:06;;;;;;;0.30;0.10;;;6.10;82.80;;;;;;6193837;23;19996;-91
2021/01/12 02:45:33;;;;;;;0.13;0.03;;;6.10;82.80;;;;;;6194789;23;20011;-88
2021/01/12 02:47:59;;;;;;;0.13;0.10;;;6.10;82.80;;;;;;6197197;23;20008;-89
2021/01/12 02:50:26;;;;;;;1.50;0.77;;;6.20;82.80;;;;;;6197067;23;20371;-88
2021/01/12 02:52:52;;;;;;;1.23;0.67;;;6.20;82.80;;;;;;6195661;23;20005;-89
2021/01/12 02:55:18;;;;;;;0.60;0.20;;;6.20;82.80;;;;;;6169943;23;20004;-88
2021/01/12 02:57:45;;;;;;;0.00;0.00;;;6.20;82.80;;;;;;6196327;23;20375;-87
2021/01/12 03:00:13;;;;;;;0.20;0.10;;;6.20;82.90;;;;;;6219941;23;20292;-88
2021/01/12 03:02:40;;;;;;;1.40;0.10;;;6.20;82.90;;;;;;6220021;23;19993;-87
2021/01/12 03:05:08;;;;;;;2.73;0.63;;;6.20;83.00;;;;;;6195405;23;20152;-90
2021/01/12 03:07:34;;;;;;;4.27;0.20;;;6.20;83.00;;;;;;6206739;23;20000;-88
2021/01/12 03:10:01;;;;;;;2.97;0.30;;;6.20;83.00;;;;;;6171531;23;20015;-88
2021/01/12 03:12:27;;;;;;;1.03;0.47;;;6.20;83.00;;;;;;6196761;23;20372;-89
2021/01/12 03:14:54;;;;;;;2.40;0.73;;;6.20;83.00;;;;;;6223104;23;20414;-87
2021/01/12 03:17:20;;;;;;;10.03;0.57;;;6.20;83.00;;;;;;6195606;23;20008;-91
2021/01/12 03:19:47;;;;;;;0.70;0.20;;;6.30;83.10;;;;;;6196273;23;19992;-87
2021/01/12 03:22:13;;;;;;;0.60;0.47;;;6.30;83.10;;;;;;6220881;23;20279;-89
2021/01/12 03:24:40;;;;;;;0.10;0.10;;;6.30;83.10;;;;;;6220311;23;20024;-88
2021/01/12 03:27:06;;;;;;;1.23;0.30;;;6.20;83.00;;;;;;6197199;23;20149;-91
2021/01/12 03:29:33;;;;;;;0.57;0.30;;;6.20;83.00;;;;;;6198250;23;20386;-88
2021/01/12 03:31:59;;;;;;;1.17;0.30;;;6.20;83.10;;;;;;6196399;23;20008;-88
2021/01/12 03:34:25;;;;;;;0.10;0.10;;;6.20;83.20;;;;;;6196420;23;20000;-90
2021/01/12 03:36:52;;;;;;;0.87;0.43;;;6.20;83.30;;;;;;6170261;23;20008;-91
2021/01/12 03:39:18;;;;;;;0.10;0.10;;;6.20;83.30;;;;;;6196271;23;20047;-90
2021/01/12 03:41:44;;;;;;;0.60;0.20;;;6.20;83.40;;;;;;6196334;23;20348;-91
2021/01/12 03:44:11;;;;;;;0.80;0.13;;;6.10;83.40;;;;;;6194917;23;20000;-88
2021/01/12 03:46:37;;;;;;;0.10;0.00;;;6.20;83.50;;;;;;6169240;23;20012;-91
2021/01/12 03:49:04;;;;;;;4.53;0.27;;;6.20;83.50;;;;;;6169512;23;20003;-88
2021/01/12 03:51:30;;;;;;;0.27;0.07;;;6.20;83.60;;;;;;6194338;23;19996;-88
2021/01/12 03:53:56;;;;;;;0.70;0.10;;;6.20;83.50;;;;;;6197671;23;19996;-90
2021/01/12 03:56:23;;;;;;;0.33;0.20;;;6.20;83.50;;;;;;6195558;23;20004;-89
2021/01/12 03:58:49;;;;;;;1.07;0.30;;;6.20;83.40;;;;;;6197469;23;20012;-91
2021/01/12 04:01:15;;;;;;;0.03;0.00;;;6.30;83.50;;;;;;6176626;23;20023;-88
2021/01/12 04:03:42;;;;;;;0.20;0.10;;;6.30;83.40;;;;;;6204346;23;20000;-89
2021/01/12 04:06:13;;;;;;;0.00;0.00;;;6.30;83.40;;;;;;6229109;23;20007;-90
2021/01/12 04:08:44;;;;;;;1.45;0.52;;;6.30;83.40;;;;;;6197263;23;20004;-89
2021/01/12 04:11:14;;;;;;;0.28;0.17;;;6.30;83.50;;;;;;6195129;23;19996;-89
2021/01/12 04:13:41;;;;;;;0.00;0.00;;;6.30;83.40;;;;;;6194092;23;20248;-89
2021/01/12 04:16:07;;;;;;;0.00;0.00;;;6.30;83.40;;;;;;6168876;23;20027;-89
2021/01/12 04:18:34;;;;;;;0.10;0.10;;;6.40;83.60;;;;;;6169132;23;20008;-89
2021/01/12 04:21:00;;;;;;;2.40;0.87;;;6.40;83.50;;;;;;6195504;23;20372;-89
2021/01/12 04:23:27;;;;;;;0.10;0.10;;;6.40;83.50;;;;;;6194161;23;20015;-90
2021/01/12 04:25:53;;;;;;;0.00;0.00;;;6.40;83.50;;;;;;6169830;23;20000;-90
2021/01/12 04:28:20;;;;;;;0.93;0.17;;;6.40;83.50;;;;;;6221231;23;19997;-88
2021/01/12 04:30:46;;;;;;;0.43;0.30;;;6.40;83.60;;;;;;6193101;23;20005;-90
2021/01/12 04:33:13;;;;;;;2.10;0.23;;;6.40;83.60;;;;;;6220677;23;19996;-89
2021/01/12 04:35:39;;;;;;;0.30;0.10;;;6.40;83.60;;;;;;6194560;23;20007;-89
2021/01/12 04:38:05;;;;;;;1.17;0.40;;;6.40;83.70;;;;;;6194961;23;19996;-89
2021/01/12 04:40:32;;;;;;;2.50;0.20;;;6.40;83.80;;;;;;6169344;23;20011;-89
2021/01/12 04:42:58;;;;;;;0.20;0.20;;;6.40;83.80;;;;;;6195830;23;20000;-90
2021/01/12 04:45:25;;;;;;;0.30;0.10;;;6.40;83.90;;;;;;6197644;23;20003;-89
2021/01/12 04:47:52;;;;;;;0.13;0.00;;;6.40;83.80;;;;;;6197219;23;20194;-88
2021/01/12 04:50:18;;;;;;;0.00;0.00;;;6.40;83.80;;;;;;6196318;23;20004;-90
2021/01/12 04:52:51;;;;;;;0.40;0.20;;;6.40;83.80;;;;;;6249541;23;20003;-88
2021/01/12 04:55:19;;;;;;;0.10;0.07;;;6.50;83.90;;;;;;6226762;23;20000;-88
2021/01/12 04:57:45;;;;;;;0.70;0.20;;;6.40;83.90;;;;;;6173738;23;19996;-89
2021/01/12 05:00:27;;;;;;;0.20;0.10;;;6.50;83.90;;;;;;6222224;23;20012;-89
2021/01/12 05:03:08;;;;;;;;;;;6.50;84.00;;;;;;6175558;23;20000;-89
2021/01/12 05:05:38;;;;;;;;;;;6.40;83.90;;;;;;6224116;23;19907;-88
2021/01/12 05:08:06;;;;;;;0.10;0.10;;;6.40;83.80;;;;;;6224597;23;19899;-89
2021/01/12 05:10:35;;;;;;;0.27;0.17;;;6.40;83.70;;;;;;6224197;23;20001;-87
2021/01/12 05:13:03;;;;;;;0.00;0.00;;;6.50;83.70;;;;;;6222519;23;20011;-90
2021/01/12 05:15:30;;;;;;;0.00;0.00;;;6.50;83.80;;;;;;6222780;23;20043;-87
2021/01/12 05:17:57;;;;;;;0.17;0.00;;;6.50;83.70;;;;;;6222619;23;20000;-89
2021/01/12 05:20:27;;;;;;;0.20;0.03;;;6.60;83.80;;;;;;6223815;23;20264;-88
2021/01/12 05:23:10;;;;;;;0.00;0.00;;;6.60;83.70;;;;;;6224215;23;20003;-88
2021/01/12 05:25:39;;;;;;;0.00;0.00;;;6.60;83.70;;;;;;6252336;23;20242;-91
2021/01/12 05:28:10;;;;;;;0.30;0.10;;;6.60;83.60;;;;;;6226060;23;20047;-87
2021/01/12 05:30:36;;;;;;;0.00;0.00;;;6.60;83.60;;;;;;6203409;23;20256;-88
2021/01/12 05:33:03;;;;;;;0.10;0.00;;;6.70;83.70;;;;;;6225695;23;19997;-88
2021/01/12 05:35:36;;;;;;;0.00;0.00;;;6.70;83.70;;;;;;6210254;22;19996;-88
2021/01/12 05:38:08;;;;;;;0.32;0.00;;;6.70;83.70;;;;;;6223168;22;20048;-88
2021/01/12 05:40:40;;;;;;;0.10;0.10;;;6.70;83.70;;;;;;6223861;23;20260;-88
2021/01/12 05:43:09;;;;;;;0.00;0.00;;;6.70;84.40;;;;;;6171281;23;20008;-88
2021/01/12 05:45:37;;;;;;;0.00;0.00;;;6.80;83.80;;;;;;6221635;22;20000;-88
2021/01/12 05:48:05;;;;;;;0.40;0.10;;;6.80;83.80;;;;;;6196271;23;20004;-88
2021/01/12 05:50:31;;;;;;;2.63;0.20;;;6.80;83.80;;;;;;6248791;23;20264;-89
2021/01/12 05:53:08;;;;;;;0.00;0.00;;;6.80;83.90;;;;;;6197728;23;20003;-91
2021/01/12 05:55:37;;;;;;;0.30;0.10;;;6.80;83.90;;;;;;6222486;23;20353;-89
2021/01/12 05:58:11;;;;;;;0.10;0.10;;;6.80;83.90;;;;;;6197652;23;19993;-88
2021/01/12 06:00:42;;;;;;;0.10;0.10;;;6.80;83.90;;;;;;6192687;23;20036;-88
2021/01/12 06:03:12;;;;;;;0.17;0.17;;;6.80;83.90;;;;;;6192767;23;19993;-88
2021/01/12 06:05:39;;;;;;;0.00;0.00;;;6.80;83.90;;;;;;6167779;23;20249;-90
2021/01/12 06:08:05;;;;;;;0.00;0.00;;;6.80;83.90;;;;;;6166327;23;20272;-87
2021/01/12 06:10:32;;;;;;;0.13;0.00;;;6.90;84.00;;;;;;6193057;23;19996;-88
2021/01/12 06:13:01;;;;;;;0.00;0.00;;;6.90;84.10;;;;;;6148174;23;20012;-92
2021/01/12 06:15:27;;;;;;;0.00;0.00;;;6.90;84.00;;;;;;6174605;23;20017;-92
2021/01/12 06:18:03;;;;;;;0.00;0.00;;;6.90;84.00;;;;;;6196467;23;20003;-87
2021/01/12 06:20:32;;;;;;;0.00;0.00;;;6.90;84.00;;;;;;6166300;23;20268;-89
2021/01/12 06:22:59;;;;;;;0.10;0.00;;;6.90;84.10;;;;;;6166680;23;20001;-89
2021/01/12 06:25:25;;;;;;;0.00;0.00;;;6.90;84.10;;;;;;6193051;23;20360;-88
2021/01/12 06:27:51;;;;;;;0.00;0.00;;;6.90;84.10;;;;;;6147435;23;20000;-93
2021/01/12 06:30:18;;;;;;;0.00;0.00;;;6.90;84.10;;;;;;6183061;23;19992;-92
2021/01/12 06:32:44;;;;;;;0.00;0.00;;;6.90;84.10;;;;;;6180714;23;19996;-91
2021/01/12 06:35:11;;;;;;;0.00;0.00;;;7.00;84.10;;;;;;6179793;23;20005;-93
2021/01/12 06:37:42;;;;;;;0.00;0.00;;;7.00;84.10;;;;;;6151435;23;20001;-89
2021/01/12 06:40:09;;;;;;;0.10;0.00;;;7.00;84.10;;;;;;6227858;23;20001;-92
2021/01/12 06:42:36;;;;;;;0.00;0.00;;;7.10;84.10;;;;;;6175714;23;20000;-88
2021/01/12 06:45:03;;;;;;;0.00;0.00;;;7.10;84.10;;;;;;6167981;23;19996;-89
2021/01/12 06:47:31;;;;;;;0.00;0.00;;;7.10;84.00;;;;;;6167354;23;20230;-88
2021/01/12 06:50:11;;;;;;;0.00;0.00;;;7.10;84.00;;;;;;6166067;23;20376;-88
2021/01/12 06:52:45;;;;;;;0.00;0.00;;;7.20;84.00;;;;;;6168321;23;20391;-87
2021/01/12 06:55:16;;;;;;;0.00;0.00;;;7.20;84.00;;;;;;6166895;23;20008;-89
2021/01/12 06:57:46;;;;;;;0.00;0.00;;;7.20;84.00;;;;;;6193154;23;20016;-88
2021/01/12 07:00:13;;;;;;;0.00;0.00;;;7.20;84.00;;;;;;6190496;23;20023;-89
2021/01/12 07:02:41;;;;;;;0.00;0.00;;;7.20;84.00;;;;;;6167194;23;20004;-89
2021/01/12 07:05:08;;;;;;;0.43;0.10;;;7.20;84.00;;;;;;6189685;23;19997;-87
2021/01/12 07:07:51;;;;;;;0.00;0.00;;;7.20;84.00;;;;;;6164230;23;20004;-88
2021/01/12 07:10:18;;;;;;;0.17;0.00;;;7.30;84.10;;;;;;6167078;23;20016;-87
2021/01/12 07:12:45;;;;;;;0.00;0.00;;;7.20;84.00;;;;;;6189889;23;20000;-87
2021/01/12 07:15:22;;;;;;;0.00;0.00;;;7.30;84.10;;;;;;6165453;23;20000;-87
2021/01/12 07:17:52;;;;;;;0.00;0.00;;;7.30;84.10;;;;;;6169634;23;20001;-87
2021/01/12 07:20:22;;;;;;;0.00;0.00;;;7.30;84.10;;;;;;6165279;23;20019;-87
2021/01/12 07:23:11;;;;;;;0.10;0.10;;;7.30;84.10;;;;;;6165112;23;19997;-87
2021/01/12 07:25:41;;;;;;;0.00;0.00;;;7.30;84.20;;;;;;6167916;23;20260;-88
2021/01/12 07:28:17;;;;;;;0.10;0.00;;;7.30;84.20;;;;;;6165640;23;20005;-89
2021/01/12 07:30:45;;;;;;;0.00;0.00;;;7.30;84.30;;;;;;6190199;23;20293;-89
2021/01/12 07:33:24;;;;;;;0.00;0.00;;;7.30;84.30;;;;;;6164734;23;20268;-88
2021/01/12 07:35:55;;;;;;;0.00;0.00;;;7.30;84.30;;;;;;6189950;23;20005;-88
2021/01/12 07:38:22;;;;;;;0.00;0.00;;;7.30;84.20;;;;;;6190805;23;20012;-86
2021/01/12 07:40:49;;;;;;;0.00;0.00;;;7.30;84.20;;;;;;6166250;23;19996;-89
2021/01/12 07:43:17;;;;;;;0.30;0.10;;;7.40;84.20;;;;;;6165154;23;19997;-87
2021/01/12 07:45:44;;;;;;;0.00;0.00;;;7.40;84.20;;;;;;6188746;23;20403;-87
2021/01/12 07:48:11;;;;;;;0.00;0.00;;;7.40;84.20;;;;;;6191977;23;20001;-89
2021/01/12 07:50:37;;;;;;;0.10;0.00;;;7.40;84.20;;;;;;6191517;23;20423;-89
2021/01/12 07:53:06;;;;;;;0.00;0.00;;;7.40;84.20;;;;;;6190464;23;20296;-88
2021/01/12 07:55:33;;;;;;;0.00;0.00;;;7.50;84.20;;;;;;6140244;23;20016;-88
2021/01/12 07:57:59;;;;;;;0.00;0.00;;;7.50;84.20;;;;;;6165260;23;20001;-88
2021/01/12 08:00:26;;;;;;;0.00;0.00;;;7.50;84.20;;;;;;6163900;23;20023;-87
2021/01/12 08:02:53;;;;;;;0.00;0.00;;;7.50;84.20;;;;;;6135085;23;20268;-87
2021/01/12 08:05:23;;;;;;;0.00;0.00;;;7.50;84.20;;;;;;6164978;23;19993;-87
2021/01/12 08:07:59;;;;;;;0.10;0.00;;;7.50;84.20;;;;;;6188012;23;20388;-87
2021/01/12 08:10:26;;;;;;;0.00;0.00;;;7.50;84.10;;;;;;6167117;23;20004;-87
2021/01/12 08:13:01;;;;;;;0.00;0.00;;;7.60;84.20;;;;;;6161984;23;20016;-87
2021/01/12 08:15:28;;;;;;;0.00;0.00;;;7.60;84.10;;;;;;6162293;23;20008;-88
2021/01/12 08:17:54;;;;;;;0.00;0.00;;;7.60;84.00;;;;;;6167545;23;19995;-88
2021/01/12 08:20:21;;;;;;;0.00;0.00;;;7.60;84.00;;;;;;6187238;23;20007;-88
2021/01/12 08:22:54;;;;;;;0.00;0.00;;;7.70;84.00;;;;;;6182249;23;20001;-88
2021/01/12 08:25:20;;;;;;;0.00;0.00;;;7.70;84.00;;;;;;6162776;23;19993;-87
2021/01/12 08:27:50;;;;;;;0.00;0.00;;;7.70;84.00;;;;;;6163117;23;19992;-87
2021/01/12 08:30:23;;;;;;;0.00;0.00;;;7.70;84.00;;;;;;6161569;23;20004;-88
2021/01/12 08:33:01;;;;;;;3.10;0.03;;;7.80;84.10;;;;;;6162724;23;20001;-88
2021/01/12 08:35:29;;;;;;;1.30;0.40;;;7.80;84.00;;;;;;6165738;23;20000;-87
2021/01/12 08:37:57;;;;;;;0.33;0.10;;;7.80;83.90;;;;;;6166797;23;20217;-86
2021/01/12 08:40:24;;;;;;;0.00;0.00;;;7.80;83.80;;;;;;6165539;23;20055;-87
2021/01/12 08:42:50;;;;;;;0.77;0.20;;;7.90;83.80;;;;;;6165673;23;20329;-87
2021/01/12 08:45:17;;;;;;;3.25;0.90;;;7.90;83.80;;;;;;6165017;23;19997;-88
2021/01/12 08:47:45;;;;;;;0.00;0.00;;;8.00;83.80;;;;;;6139351;23;20380;-87
2021/01/12 08:50:12;;;;;;;0.00;0.00;;;8.00;83.80;;;;;;6166342;23;20004;-91
2021/01/12 08:52:39;;;;;;;0.03;0.03;;;8.00;83.70;;;;;;6168347;23;20011;-90
2021/01/12 08:55:15;;;;;;;0.00;0.00;;;8.10;83.70;;;;;;6166178;23;20009;-88
2021/01/12 08:57:42;;;;;;;0.08;0.00;;;8.20;83.30;;;;;;6170012;23;20008;-88
2021/01/12 09:00:12;;;;;;;0.00;0.00;;;8.30;83.10;;;;;;6209449;22;20013;-86
2021/01/12 09:02:38;;;;;;;0.00;0.00;;;8.40;82.90;;;;;;6214802;23;20280;-87
2021/01/12 09:05:07;;;;;;;0.00;0.00;;;8.40;82.90;;;;;;6164652;23;20003;-87
2021/01/12 09:07:33;;;;;;;0.00;0.00;;;8.40;83.80;;;;;;6194737;23;20008;-87
2021/01/12 09:10:00;;;;;;;0.38;0.38;;;8.40;83.30;;;;;;6218500;23;20003;-87
2021/01/12 09:12:27;;;;;;;0.00;0.00;;;8.40;83.30;;;;;;6194750;23;20011;-87
2021/01/12 09:14:53;;;;;;;0.00;0.00;;;8.40;83.30;;;;;;6195862;23;20024;-86
2021/01/12 09:17:20;;;;;;;0.00;0.00;;;8.40;83.30;;;;;;6236314;22;20030;-87
2021/01/12 09:19:53;;;;;;;0.00;0.00;;;8.40;83.30;;;;;;6201781;23;19996;-87
2021/01/12 09:22:20;;;;;;;0.00;0.00;;;8.50;83.30;;;;;;6189566;23;20008;-87
2021/01/12 09:24:50;;;;;;;0.20;0.00;;;8.50;83.30;;;;;;6213964;23;20004;-87
2021/01/12 09:27:25;;;;;;;0.30;0.10;;;8.50;83.20;;;;;;6188472;23;20012;-87
2021/01/12 09:29:51;;;;;;;0.13;0.00;;;8.60;83.20;;;;;;6192855;23;20277;-88
2021/01/12 09:32:27;;;;;;;0.00;0.00;;;8.60;83.10;;;;;;6190125;23;20024;-86
2021/01/12 09:34:54;;;;;;;0.00;0.00;;;8.70;83.10;;;;;;6217617;23;20004;-89
2021/01/12 09:37:20;;;;;;;0.03;0.00;;;8.70;83.00;;;;;;6165335;23;20009;-88
2021/01/12 09:39:56;;;;;;;0.10;0.10;;;8.80;83.00;;;;;;6216850;23;20004;-88
2021/01/12 09:42:26;;;;;;;0.10;0.00;;;8.80;82.90;;;;;;6217995;23;20375;-87
2021/01/12 09:44:54;;;;;;;0.00;0.00;;;8.80;82.80;;;;;;6217432;23;20004;-92
2021/01/12 09:47:20;;;;;;;0.00;0.00;;;8.90;82.80;;;;;;6190403;23;20011;-89
2021/01/12 09:49:47;;;;;;;3.08;0.32;;;8.90;82.70;;;;;;6216421;23;20004;-88
2021/01/12 09:52:13;;;;;;;0.00;0.00;;;9.00;82.70;;;;;;6192037;23;20004;-88
2021/01/12 09:57:36;;;;;;;0.95;0.63;;;9.00;82.70;;;;;;6202938;23;20012;-88
2021/01/12 10:00:06;;;;;;;0.03;0.03;;;9.00;83.60;;;;;;6220056;23;20012;-88
2021/01/12 10:02:33;;;;;;;0.00;0.00;;;9.00;82.80;;;;;;6195453;23;20004;-89
2021/01/12 10:05:02;;;;;;;0.15;0.05;;;9.10;82.80;;;;;;6195911;23;19996;-89
2021/01/12 10:07:29;;;;;;;1.08;0.10;;;9.10;82.80;;;;;;6197654;23;20008;-88
2021/01/12 10:09:55;;;;;;;0.05;0.00;;;9.10;82.70;;;;;;6197349;23;20311;-90
2021/01/12 10:12:21;;;;;;;0.00;0.00;;;9.20;82.70;;;;;;6197464;23;20271;-90
2021/01/12 10:14:48;;;;;;;0.05;0.00;;;9.20;83.40;;;;;;6197052;23;20004;-91
2021/01/12 10:17:14;;;;;;;0.00;0.00;;;9.30;82.70;;;;;;6170164;23;20269;-91
2021/01/12 10:19:41;;;;;;;0.20;0.10;;;9.30;82.60;;;;;;6171050;23;20003;-89
2021/01/12 10:22:07;;;;;;;0.00;0.00;;;9.40;82.60;;;;;;6170427;23;20276;-90
2021/01/12 10:24:33;;;;;;;0.93;0.20;;;9.50;82.50;;;;;;6197617;23;20000;-91
2021/01/12 10:27:00;;;;;;;0.00;0.00;;;9.50;82.30;;;;;;6170686;23;20082;-88
2021/01/12 10:29:26;;;;;;;1.13;0.17;;;9.60;82.30;;;;;;6169915;23;20004;-89
2021/01/12 10:31:53;;;;;;;1.00;0.15;;;9.60;82.30;;;;;;6193299;23;20023;-88
2021/01/12 10:34:20;;;;;;;0.00;0.00;;;9.70;82.30;;;;;;6170727;23;20000;-89
2021/01/12 10:36:50;;;;;;;0.40;0.15;;;9.70;82.30;;;;;;6170880;23;20008;-88
2021/01/12 10:39:17;;;;;;;0.00;0.00;;;9.70;82.20;;;;;;6196827;23;19992;-90
2021/01/12 10:41:43;;;;;;;0.20;0.10;;;9.70;82.20;;;;;;6171859;23;20008;-92
2021/01/12 10:44:10;;;;;;;0.00;0.00;;;9.70;82.30;;;;;;6196969;23;19996;-90
2021/01/12 10:46:36;;;;;;;0.20;0.00;;;9.80;82.40;;;;;;6196170;23;20059;-92
2021/01/12 10:49:04;;;;;;;0.08;0.05;;;9.80;82.50;;;;;;6221578;23;20023;-90
2021/01/12 10:51:30;;;;;;;0.73;0.40;;;9.80;82.50;;;;;;6171171;23;20204;-92
2021/01/12 10:53:57;;;;;;;0.00;0.00;;;9.80;82.50;;;;;;6200813;23;20000;-92
2021/01/12 10:56:23;;;;;;;0.45;0.03;;;9.80;82.50;;;;;;6200678;23;20019;-90
2021/01/12 10:58:52;;;;;;;0.00;0.00;;;9.90;82.60;;;;;;6165302;23;20004;-94
2021/01/12 11:01:19;;;;;;;0.00;0.00;;;9.90;82.60;;;;;;6166818;23;20015;-92
2021/01/12 11:03:45;;;;;;;0.10;0.00;;;9.90;82.50;;;;;;6191092;23;20001;-93
2021/01/12 11:06:12;;;;;;;0.10;0.00;;;9.90;82.50;;;;;;6170962;23;20000;-91
2021/01/12 11:08:41;;;;;;;0.08;0.00;;;10.00;82.50;;;;;;6145890;23;20005;-92
2021/01/12 11:11:08;;;;;;;0.22;0.10;;;10.00;82.60;;;;;;6150488;23;20023;-91
2021/01/12 11:13:35;;;;;;;0.60;0.15;;;10.00;82.50;;;;;;6170642;23;20007;-92
2021/01/12 11:16:01;;;;;;;0.00;0.00;;;10.00;82.60;;;;;;6194828;23;20396;-90
2021/01/12 11:18:27;;;;;;;0.15;0.05;;;10.00;82.70;;;;;;6166482;23;20005;-90
2021/01/12 11:20:54;;;;;;;0.25;0.17;;;10.00;82.80;;;;;;6165900;23;20007;-90
2021/01/12 11:23:22;;;;;;;1.08;0.25;;;10.00;82.80;;;;;;6168993;23;20004;-92
2021/01/12 11:25:49;;;;;;;0.88;0.17;;;10.00;82.90;;;;;;6144870;23;20001;-90
2021/01/12 11:28:16;;;;;;;0.55;0.10;;;10.00;83.00;;;;;;6143390;23;20004;-91
2021/01/12 11:30:42;;;;;;;1.02;0.10;;;10.00;83.10;;;;;;6143175;23;20017;-91
2021/01/12 11:33:10;;;;;;;0.40;0.32;;;10.00;83.10;;;;;;6141260;23;20130;-91
2021/01/12 11:36:35;;;;;;;0.25;0.00;;;10.00;83.10;;;;;;6162845;23;20383;-92
2021/01/12 11:39:30;;;;;;;0.00;0.00;;;10.00;83.20;;;;;;6172081;23;20000;-89
2021/01/12 11:41:57;;;;;;;0.00;0.00;;;10.00;83.10;;;;;;6173956;23;20264;-87
2021/01/12 11:44:35;;;;;;;0.73;0.20;;;10.00;83.10;;;;;;6187339;23;20004;-90
2021/01/12 11:47:02;;;;;;;0.30;0.05;;;10.00;83.10;;;;;;6154281;23;20278;-89
2021/01/12 11:53:13;;;;;;;0.85;0.22;;;10.10;83.20;;;;;;6082716;23;20006;-92
2021/01/12 11:56:39;;;;;;;0.00;0.00;;;10.20;83.20;;;;;;6092695;23;20041;-90
2021/01/12 12:03:15;;;;;;;0.22;0.22;;;10.30;82.90;;;;;;6059278;23;20043;-92
2021/01/12 12:13:40;;;;;;;;;;;;;;;;;;;;;
2021/01/12 12:23:37;;;;;;;;;;;;;;;;;;;;;
2021/01/12 12:26:13;;;;;;;0.00;0.00;;;10.80;82.10;;;;;;6086282;23;20449;-91
2021/01/12 12:28:54;;;;;;;0.00;0.00;;;10.90;82.00;;;;;;6165933;23;20011;-92
2021/01/12 12:31:56;;;;;;;0.00;0.00;;;11.00;82.00;;;;;;6127086;23;20408;-91
2021/01/12 12:34:54;;;;;;;0.10;0.00;;;11.00;81.90;;;;;;6189986;23;20011;-92
2021/01/12 12:40:41;;;;;;;0.00;0.00;;;11.10;81.90;;;;;;6181319;23;20016;-91
2021/01/12 12:43:19;;;;;;;0.00;0.00;;;11.10;81.90;;;;;;6190031;23;20059;-91
2021/01/12 12:46:11;;;;;;;0.00;0.00;;;11.10;82.00;;;;;;6137679;23;20020;-92
2021/01/12 12:48:50;;;;;;;0.00;0.00;;;11.20;82.20;;;;;;6159521;23;20011;-90
2021/01/12 12:51:16;;;;;;;0.00;0.00;;;11.10;82.20;;;;;;6167542;23;20004;-89
2021/01/12 12:53:45;;;;;;;0.00;0.00;;;11.10;82.30;;;;;;6163001;23;20133;-90
2021/01/12 12:56:23;;;;;;;0.00;0.00;;;11.10;82.40;;;;;;6164365;23;20020;-89
2021/01/12 12:59:08;;;;;;;0.00;0.00;;;11.10;82.50;;;;;;6192276;23;20024;-89
2021/01/12 13:01:34;;;;;;;0.00;0.00;;;11.10;83.30;;;;;;6201986;23;20017;-90
2021/01/12 13:10:57;;;;;;;0.00;0.00;;;11.30;82.30;;;;;;6195468;23;20258;-92
2021/01/12 13:13:24;;;;;;;0.00;0.00;;;11.40;82.30;;;;;;6189588;23;20289;-91
2021/01/12 13:16:03;;;;;;;0.00;0.00;;;11.40;82.30;;;;;;6170056;23;20198;-93
2021/01/12 13:18:44;;;;;;;0.00;0.00;;;11.40;82.40;;;;;;6180039;23;20238;-92
2021/01/12 13:21:11;;;;;;;1.98;0.22;;;11.40;82.50;;;;;;6193482;23;20401;-89
2021/01/12 13:23:46;;;;;;;0.00;0.00;;;11.30;82.60;;;;;;6191207;23;19996;-91
2021/01/12 13:26:18;;;;;;;0.73;0.00;;;11.30;82.70;;;;;;6189523;23;20012;-92
2021/01/12 13:28:48;;;;;;;0.08;0.00;;;11.30;82.70;;;;;;6188385;23;20007;-90
2021/01/12 13:31:20;;;;;;;0.00;0.00;;;11.30;82.80;;;;;;6187705;23;20012;-91
2021/01/12 13:34:07;;;;;;;0.00;0.00;;;11.30;82.90;;;;;;6190371;23;19992;-91
2021/01/12 13:36:47;;;;;;;0.00;0.00;;;11.30;82.90;;;;;;6193506;23;20009;-90
2021/01/12 13:39:18;;;;;;;0.17;0.00;;;11.30;82.90;;;;;;6188370;23;20000;-90
2021/01/12 13:42:05;;;;;;;0.88;0.13;;;11.30;82.90;;;;;;6191819;23;19996;-92
2021/01/12 13:47:36;;;;;;;0.22;0.05;;;11.40;83.00;;;;;;6118562;23;20308;-91
2021/01/12 13:50:47;;;;;;;;;;;;;;;;;;;;;